Aredale, Iowa
Current Conditions -  °F | °C
As of 10:55 AM on Thursday 27 Nov 2014 (Local Time) from KCCY Reporting Station
Clear Clear  
Wind Chill: -14°   Ceiling: Unl
Heat Index:   Visibility: 10mi
Dew Point: -6°   Wind: 10mph
Humidity: 72%   Direction: 330°NNW
Pressure: 30.49"   Gusts: NA
Location:  42.83°N, 93.01°W
Report Text: KCCY 271655Z AUTO 33009KT 10SM CLR M17/M21 A3049 RMK AO2
Loading
Personal Weather Stations






























Interactive Weather Map New forecast layout! Learn more

10-Day Weather Forecast

Advertisements
Track Severe Weather on mobile